Terminal Aerodrome Forecast
Issued by NWS

Home | Current Version | Previous Version | Text Only | Print | Product List | Glossary On
Versions: 1 2 3 4 5 6 7 8 9 10 11 12 13 14 15 16 17 18 19 20 21
232
FTUS43 KIND 191123
TAFLAF
TAF
KLAF 191123Z 1912/2012 26004KT 3SM BR OVC005
     FM191600 VRB03KT P6SM BKN015
     FM191800 VRB03KT P6SM SCT070
     FM200600 16004KT 3SM BR SCT080
     FM200900 14004KT 3SM BR BKN015
      AMD LTD TO CLD VIS AND WIND TIL 191400=

USA.gov is the U.S. government's official web portal to all federal, state and local government web resources and services.